sensor_id;sensor_type;location;lat;lon;timestamp;temperature;humidity
45115;DHT22;30877;43.706;10.780;2023-12-20T00:01:59;8.20;96.70
45115;DHT22;30877;43.706;10.780;2023-12-20T00:04:30;8.20;96.70
45115;DHT22;30877;43.706;10.780;2023-12-20T00:10:48;8.20;96.70
45115;DHT22;30877;43.706;10.780;2023-12-20T00:13:43;8.20;96.70
45115;DHT22;30877;43.706;10.780;2023-12-20T00:16:45;8.20;96.70
45115;DHT22;30877;43.706;10.780;2023-12-20T00:19:15;8.20;96.70
45115;DHT22;30877;43.706;10.780;2023-12-20T00:24:34;8.20;96.70
45115;DHT22;30877;43.706;10.780;2023-12-20T00:27:27;8.20;96.70
45115;DHT22;30877;43.706;10.780;2023-12-20T00:29:57;8.20;96.70
45115;DHT22;30877;43.706;10.780;2023-12-20T00:32:27;8.10;96.70
45115;DHT22;30877;43.706;10.780;2023-12-20T00:35:23;8.10;96.70
45115;DHT22;30877;43.706;10.780;2023-12-20T00:37:52;8.10;96.70
45115;DHT22;30877;43.706;10.780;2023-12-20T00:54:52;8.10;96.70
45115;DHT22;30877;43.706;10.780;2023-12-20T00:57:24;8.20;96.70
45115;DHT22;30877;43.706;10.780;2023-12-20T01:04:49;8.20;96.70
45115;DHT22;30877;43.706;10.780;2023-12-20T01:07:35;8.20;96.70
45115;DHT22;30877;43.706;10.780;2023-12-20T01:10:07;8.10;96.70
45115;DHT22;30877;43.706;10.780;2023-12-20T01:12:40;8.10;96.70
45115;DHT22;30877;43.706;10.780;2023-12-20T01:15:43;8.20;96.70
45115;DHT22;30877;43.706;10.780;2023-12-20T01:18:37;8.10;96.70
45115;DHT22;30877;43.706;10.780;2023-12-20T01:21:07;8.10;96.70
45115;DHT22;30877;43.706;10.780;2023-12-20T01:23:36;8.00;96.70
45115;DHT22;30877;43.706;10.780;2023-12-20T01:26:07;8.00;96.70
45115;DHT22;30877;43.706;10.780;2023-12-20T01:28:47;8.10;96.70
45115;DHT22;30877;43.706;10.780;2023-12-20T01:31:17;8.00;96.70
45115;DHT22;30877;43.706;10.780;2023-12-20T01:33:49;8.00;96.70
45115;DHT22;30877;43.706;10.780;2023-12-20T01:36:57;8.00;96.70
45115;DHT22;30877;43.706;10.780;2023-12-20T01:39:27;8.00;96.70
45115;DHT22;30877;43.706;10.780;2023-12-20T01:45:32;7.90;96.70
45115;DHT22;30877;43.706;10.780;2023-12-20T01:48:05;8.00;96.70
45115;DHT22;30877;43.706;10.780;2023-12-20T01:50:36;8.00;96.70
45115;DHT22;30877;43.706;10.780;2023-12-20T01:53:08;8.00;96.70
45115;DHT22;30877;43.706;10.780;2023-12-20T01:56:17;8.10;96.70
45115;DHT22;30877;43.706;10.780;2023-12-20T01:58:47;8.10;96.70
45115;DHT22;30877;43.706;10.780;2023-12-20T02:01:19;8.10;96.70
45115;DHT22;30877;43.706;10.780;2023-12-20T02:04:13;8.10;96.70
45115;DHT22;30877;43.706;10.780;2023-12-20T02:06:43;8.10;96.70
45115;DHT22;30877;43.706;10.780;2023-12-20T02:09:16;8.10;96.70
45115;DHT22;30877;43.706;10.780;2023-12-20T02:15:41;8.00;96.70
45115;DHT22;30877;43.706;10.780;2023-12-20T02:22:52;7.90;96.70
45115;DHT22;30877;43.706;10.780;2023-12-20T02:28:41;7.80;96.70
45115;DHT22;30877;43.706;10.780;2023-12-20T02:31:10;7.80;96.70
45115;DHT22;30877;43.706;10.780;2023-12-20T02:34:13;7.80;96.70
45115;DHT22;30877;43.706;10.780;2023-12-20T02:36:43;7.80;96.70
45115;DHT22;30877;43.706;10.780;2023-12-20T02:40:03;7.80;96.70
45115;DHT22;30877;43.706;10.780;2023-12-20T02:45:54;7.80;96.70
45115;DHT22;30877;43.706;10.780;2023-12-20T02:49:08;7.70;96.70
45115;DHT22;30877;43.706;10.780;2023-12-20T02:51:37;7.70;96.70
45115;DHT22;30877;43.706;10.780;2023-12-20T02:54:46;7.70;96.70
45115;DHT22;30877;43.706;10.780;2023-12-20T02:57:31;7.70;96.70
45115;DHT22;30877;43.706;10.780;2023-12-20T03:00:28;7.70;96.70
45115;DHT22;30877;43.706;10.780;2023-12-20T03:06:51;7.70;96.70
45115;DHT22;30877;43.706;10.780;2023-12-20T03:09:23;7.70;96.70
45115;DHT22;30877;43.706;10.780;2023-12-20T03:12:19;7.60;96.70
45115;DHT22;30877;43.706;10.780;2023-12-20T03:14:51;7.60;96.70
45115;DHT22;30877;43.706;10.780;2023-12-20T03:17:20;7.60;96.70
45115;DHT22;30877;43.706;10.780;2023-12-20T03:19:50;7.60;96.70
45115;DHT22;30877;43.706;10.780;2023-12-20T03:22:19;7.60;96.70
45115;DHT22;30877;43.706;10.780;2023-12-20T03:29:44;7.60;96.70
45115;DHT22;30877;43.706;10.780;2023-12-20T03:33:06;7.70;96.70
45115;DHT22;30877;43.706;10.780;2023-12-20T03:35:38;7.70;96.70
45115;DHT22;30877;43.706;10.780;2023-12-20T03:38:15;7.80;96.70
45115;DHT22;30877;43.706;10.780;2023-12-20T03:40:47;7.80;96.70
45115;DHT22;30877;43.706;10.780;2023-12-20T03:43:17;7.90;96.70
45115;DHT22;30877;43.706;10.780;2023-12-20T03:45:46;7.80;96.70
45115;DHT22;30877;43.706;10.780;2023-12-20T03:48:28;7.90;96.70
45115;DHT22;30877;43.706;10.780;2023-12-20T03:50:57;7.90;96.70
45115;DHT22;30877;43.706;10.780;2023-12-20T03:53:26;7.90;96.70
45115;DHT22;30877;43.706;10.780;2023-12-20T03:56:06;7.90;96.70
45115;DHT22;30877;43.706;10.780;2023-12-20T03:58:37;8.00;96.70
45115;DHT22;30877;43.706;10.780;2023-12-20T04:01:09;7.90;96.70
45115;DHT22;30877;43.706;10.780;2023-12-20T04:03:50;7.90;96.70
45115;DHT22;30877;43.706;10.780;2023-12-20T04:06:29;7.90;96.70
45115;DHT22;30877;43.706;10.780;2023-12-20T04:08:59;7.90;96.70
45115;DHT22;30877;43.706;10.780;2023-12-20T04:12:35;7.90;96.70
45115;DHT22;30877;43.706;10.780;2023-12-20T04:15:05;7.90;96.70
45115;DHT22;30877;43.706;10.780;2023-12-20T04:22:27;7.90;96.70
45115;DHT22;30877;43.706;10.780;2023-12-20T04:25:24;8.00;96.70
45115;DHT22;30877;43.706;10.780;2023-12-20T04:28:21;8.00;96.70
45115;DHT22;30877;43.706;10.780;2023-12-20T04:32:26;8.00;96.70
45115;DHT22;30877;43.706;10.780;2023-12-20T04:58:20;7.90;96.70
45115;DHT22;30877;43.706;10.780;2023-12-20T05:01:20;7.80;96.70
45115;DHT22;30877;43.706;10.780;2023-12-20T05:11:56;7.80;96.70
45115;DHT22;30877;43.706;10.780;2023-12-20T05:15:10;7.80;96.70
45115;DHT22;30877;43.706;10.780;2023-12-20T05:21:43;7.70;96.70
45115;DHT22;30877;43.706;10.780;2023-12-20T05:32:24;7.80;96.70
45115;DHT22;30877;43.706;10.780;2023-12-20T05:34:54;7.70;96.70
45115;DHT22;30877;43.706;10.780;2023-12-20T05:46:49;7.80;96.70
45115;DHT22;30877;43.706;10.780;2023-12-20T05:58:31;7.70;96.70
45115;DHT22;30877;43.706;10.780;2023-12-20T06:05:35;7.70;96.70
45115;DHT22;30877;43.706;10.780;2023-12-20T06:08:31;7.80;96.70
45115;DHT22;30877;43.706;10.780;2023-12-20T06:11:04;7.80;96.70
45115;DHT22;30877;43.706;10.780;2023-12-20T06:33:46;7.80;96.70
45115;DHT22;30877;43.706;10.780;2023-12-20T06:36:26;7.80;96.70
45115;DHT22;30877;43.706;10.780;2023-12-20T06:39:15;7.90;96.70
45115;DHT22;30877;43.706;10.780;2023-12-20T06:50:20;7.90;96.70
45115;DHT22;30877;43.706;10.780;2023-12-20T07:11:19;8.00;96.70
45115;DHT22;30877;43.706;10.780;2023-12-20T07:13:48;8.00;96.70
45115;DHT22;30877;43.706;10.780;2023-12-20T07:16:20;8.00;96.70
45115;DHT22;30877;43.706;10.780;2023-12-20T07:19:30;8.10;96.70
45115;DHT22;30877;43.706;10.780;2023-12-20T07:26:20;8.10;96.70
45115;DHT22;30877;43.706;10.780;2023-12-20T07:28:53;8.10;96.70
45115;DHT22;30877;43.706;10.780;2023-12-20T07:31:46;8.10;96.70
45115;DHT22;30877;43.706;10.780;2023-12-20T07:38:42;8.10;96.70
45115;DHT22;30877;43.706;10.780;2023-12-20T07:42:02;8.20;96.70
45115;DHT22;30877;43.706;10.780;2023-12-20T07:44:34;8.20;96.70
45115;DHT22;30877;43.706;10.780;2023-12-20T07:48:01;8.20;96.70
45115;DHT22;30877;43.706;10.780;2023-12-20T07:54:51;8.30;96.70
45115;DHT22;30877;43.706;10.780;2023-12-20T08:18:37;8.70;96.70
45115;DHT22;30877;43.706;10.780;2023-12-20T08:21:16;8.90;96.70
45115;DHT22;30877;43.706;10.780;2023-12-20T08:28:36;9.00;96.70
45115;DHT22;30877;43.706;10.780;2023-12-20T08:35:06;9.00;96.70
45115;DHT22;30877;43.706;10.780;2023-12-20T08:43:06;9.00;96.70
45115;DHT22;30877;43.706;10.780;2023-12-20T08:50:32;9.10;96.70
45115;DHT22;30877;43.706;10.780;2023-12-20T08:53:02;9.10;96.70
45115;DHT22;30877;43.706;10.780;2023-12-20T08:55:33;9.20;96.70
45115;DHT22;30877;43.706;10.780;2023-12-20T08:58:15;9.20;96.70
45115;DHT22;30877;43.706;10.780;2023-12-20T09:04:52;9.20;96.70
45115;DHT22;30877;43.706;10.780;2023-12-20T09:18:27;9.20;96.70
45115;DHT22;30877;43.706;10.780;2023-12-20T09:21:09;9.20;96.70
45115;DHT22;30877;43.706;10.780;2023-12-20T09:27:49;9.20;96.70
45115;DHT22;30877;43.706;10.780;2023-12-20T09:34:14;9.30;96.70
45115;DHT22;30877;43.706;10.780;2023-12-20T09:45:36;9.40;96.70
45115;DHT22;30877;43.706;10.780;2023-12-20T09:56:18;9.60;96.70
45115;DHT22;30877;43.706;10.780;2023-12-20T09:58:47;9.70;96.70
45115;DHT22;30877;43.706;10.780;2023-12-20T10:01:16;9.70;96.70
45115;DHT22;30877;43.706;10.780;2023-12-20T10:04:37;9.70;96.70
45115;DHT22;30877;43.706;10.780;2023-12-20T10:07:09;9.70;96.70
45115;DHT22;30877;43.706;10.780;2023-12-20T10:09:46;9.70;96.70
45115;DHT22;30877;43.706;10.780;2023-12-20T10:13:06;9.70;96.70
45115;DHT22;30877;43.706;10.780;2023-12-20T10:16:00;9.70;96.70
45115;DHT22;30877;43.706;10.780;2023-12-20T10:18:30;9.70;96.70
45115;DHT22;30877;43.706;10.780;2023-12-20T10:21:06;9.70;96.70
45115;DHT22;30877;43.706;10.780;2023-12-20T10:23:41;9.70;96.70
45115;DHT22;30877;43.706;10.780;2023-12-20T10:27:09;9.70;96.70
45115;DHT22;30877;43.706;10.780;2023-12-20T10:29:40;9.70;96.70
45115;DHT22;30877;43.706;10.780;2023-12-20T10:45:42;9.70;96.70
45115;DHT22;30877;43.706;10.780;2023-12-20T10:48:21;9.80;96.70
45115;DHT22;30877;43.706;10.780;2023-12-20T10:50:57;9.80;96.70
45115;DHT22;30877;43.706;10.780;2023-12-20T10:53:27;9.80;96.70
45115;DHT22;30877;43.706;10.780;2023-12-20T10:56:48;9.80;96.70
45115;DHT22;30877;43.706;10.780;2023-12-20T11:03:35;9.90;96.70
45115;DHT22;30877;43.706;10.780;2023-12-20T11:18:29;10.20;96.70
45115;DHT22;30877;43.706;10.780;2023-12-20T11:21:04;10.20;96.70
45115;DHT22;30877;43.706;10.780;2023-12-20T11:25:06;10.20;96.70
45115;DHT22;30877;43.706;10.780;2023-12-20T12:06:03;10.00;96.70
45115;DHT22;30877;43.706;10.780;2023-12-20T12:12:57;10.10;96.70
45115;DHT22;30877;43.706;10.780;2023-12-20T12:29:12;10.20;96.70
45115;DHT22;30877;43.706;10.780;2023-12-20T12:31:42;10.20;96.70
45115;DHT22;30877;43.706;10.780;2023-12-20T12:58:54;10.50;96.70
45115;DHT22;30877;43.706;10.780;2023-12-20T13:01:23;10.50;96.70
45115;DHT22;30877;43.706;10.780;2023-12-20T13:08:37;10.60;96.70
45115;DHT22;30877;43.706;10.780;2023-12-20T13:11:12;10.60;96.70
45115;DHT22;30877;43.706;10.780;2023-12-20T13:13:44;10.60;96.70
45115;DHT22;30877;43.706;10.780;2023-12-20T13:16:16;10.70;96.70
45115;DHT22;30877;43.706;10.780;2023-12-20T13:23:01;10.70;96.70
45115;DHT22;30877;43.706;10.780;2023-12-20T13:25:31;10.60;96.70
45115;DHT22;30877;43.706;10.780;2023-12-20T13:27:59;10.60;96.70
45115;DHT22;30877;43.706;10.780;2023-12-20T13:30:28;10.60;96.70
45115;DHT22;30877;43.706;10.780;2023-12-20T13:33:00;10.60;96.70
45115;DHT22;30877;43.706;10.780;2023-12-20T13:35:29;10.50;96.70
45115;DHT22;30877;43.706;10.780;2023-12-20T13:50:28;10.20;96.70
45115;DHT22;30877;43.706;10.780;2023-12-20T13:53:20;10.10;96.70
45115;DHT22;30877;43.706;10.780;2023-12-20T13:56:26;10.10;96.70
45115;DHT22;30877;43.706;10.780;2023-12-20T13:58:58;10.10;96.70
45115;DHT22;30877;43.706;10.780;2023-12-20T14:05:37;10.10;96.70
45115;DHT22;30877;43.706;10.780;2023-12-20T14:08:09;10.10;96.70
45115;DHT22;30877;43.706;10.780;2023-12-20T14:20:19;9.90;96.70
45115;DHT22;30877;43.706;10.780;2023-12-20T14:22:52;9.90;96.70
45115;DHT22;30877;43.706;10.780;2023-12-20T14:29:11;9.90;96.70
45115;DHT22;30877;43.706;10.780;2023-12-20T14:32:05;9.80;96.70
45115;DHT22;30877;43.706;10.780;2023-12-20T14:35:52;9.80;96.70
45115;DHT22;30877;43.706;10.780;2023-12-20T14:47:07;9.70;96.70
45115;DHT22;30877;43.706;10.780;2023-12-20T15:03:45;9.60;96.70
45115;DHT22;30877;43.706;10.780;2023-12-20T15:07:20;9.60;96.70
45115;DHT22;30877;43.706;10.780;2023-12-20T15:09:55;9.60;96.70
45115;DHT22;30877;43.706;10.780;2023-12-20T15:12:26;9.60;96.70
45115;DHT22;30877;43.706;10.780;2023-12-20T15:35:30;9.30;96.70
45115;DHT22;30877;43.706;10.780;2023-12-20T15:51:56;9.20;96.70
45115;DHT22;30877;43.706;10.780;2023-12-20T15:54:26;9.20;96.70
45115;DHT22;30877;43.706;10.780;2023-12-20T16:04:50;9.10;96.70
45115;DHT22;30877;43.706;10.780;2023-12-20T16:07:22;9.10;96.70
45115;DHT22;30877;43.706;10.780;2023-12-20T16:09:52;9.10;96.70
45115;DHT22;30877;43.706;10.780;2023-12-20T16:17:33;9.10;96.70
45115;DHT22;30877;43.706;10.780;2023-12-20T16:29:22;9.00;96.70
45115;DHT22;30877;43.706;10.780;2023-12-20T16:36:11;9.00;96.70
45115;DHT22;30877;43.706;10.780;2023-12-20T16:55:33;8.80;96.70
45115;DHT22;30877;43.706;10.780;2023-12-20T16:58:13;8.70;96.70
45115;DHT22;30877;43.706;10.780;2023-12-20T17:00:45;8.70;96.70
45115;DHT22;30877;43.706;10.780;2023-12-20T17:15:44;8.60;96.70
45115;DHT22;30877;43.706;10.780;2023-12-20T17:23:28;8.60;96.70
45115;DHT22;30877;43.706;10.780;2023-12-20T17:26:17;8.50;96.70
45115;DHT22;30877;43.706;10.780;2023-12-20T17:28:50;8.50;96.70
45115;DHT22;30877;43.706;10.780;2023-12-20T18:14:34;8.30;96.70
45115;DHT22;30877;43.706;10.780;2023-12-20T18:32:55;8.10;96.70
45115;DHT22;30877;43.706;10.780;2023-12-20T18:35:24;8.10;96.70
45115;DHT22;30877;43.706;10.780;2023-12-20T18:37:52;8.10;96.70
45115;DHT22;30877;43.706;10.780;2023-12-20T18:40:21;8.00;96.70
45115;DHT22;30877;43.706;10.780;2023-12-20T18:42:51;8.00;96.70
45115;DHT22;30877;43.706;10.780;2023-12-20T18:45:19;8.10;96.70
45115;DHT22;30877;43.706;10.780;2023-12-20T18:47:47;8.10;96.70
45115;DHT22;30877;43.706;10.780;2023-12-20T18:50:18;8.00;96.70
45115;DHT22;30877;43.706;10.780;2023-12-20T18:52:46;7.90;96.70
45115;DHT22;30877;43.706;10.780;2023-12-20T18:55:15;7.80;96.70
45115;DHT22;30877;43.706;10.780;2023-12-20T18:57:44;7.70;96.70
45115;DHT22;30877;43.706;10.780;2023-12-20T19:00:14;7.70;96.70
45115;DHT22;30877;43.706;10.780;2023-12-20T19:02:42;7.70;96.70
45115;DHT22;30877;43.706;10.780;2023-12-20T19:05:12;7.70;96.70
45115;DHT22;30877;43.706;10.780;2023-12-20T19:07:50;7.70;96.70
45115;DHT22;30877;43.706;10.780;2023-12-20T19:10:20;7.70;96.70
45115;DHT22;30877;43.706;10.780;2023-12-20T19:12:53;7.70;96.70
45115;DHT22;30877;43.706;10.780;2023-12-20T19:15:21;7.70;96.70
45115;DHT22;30877;43.706;10.780;2023-12-20T19:17:50;7.70;96.70
45115;DHT22;30877;43.706;10.780;2023-12-20T19:20:18;7.70;96.70
45115;DHT22;30877;43.706;10.780;2023-12-20T19:22:50;7.60;96.70
45115;DHT22;30877;43.706;10.780;2023-12-20T19:25:19;7.60;96.70
45115;DHT22;30877;43.706;10.780;2023-12-20T19:27:48;7.70;96.70
45115;DHT22;30877;43.706;10.780;2023-12-20T19:30:17;7.60;96.70
45115;DHT22;30877;43.706;10.780;2023-12-20T19:32:45;7.60;96.70
45115;DHT22;30877;43.706;10.780;2023-12-20T19:35:14;7.60;96.70
45115;DHT22;30877;43.706;10.780;2023-12-20T19:37:43;7.60;96.70
45115;DHT22;30877;43.706;10.780;2023-12-20T19:40:14;7.60;96.70
45115;DHT22;30877;43.706;10.780;2023-12-20T19:42:43;7.50;96.70
45115;DHT22;30877;43.706;10.780;2023-12-20T19:45:12;7.50;96.70
45115;DHT22;30877;43.706;10.780;2023-12-20T19:47:48;7.50;96.70
45115;DHT22;30877;43.706;10.780;2023-12-20T19:50:18;7.40;96.70
45115;DHT22;30877;43.706;10.780;2023-12-20T19:52:48;7.30;96.70
45115;DHT22;30877;43.706;10.780;2023-12-20T19:55:21;7.20;96.70
45115;DHT22;30877;43.706;10.780;2023-12-20T19:57:53;7.10;96.70
45115;DHT22;30877;43.706;10.780;2023-12-20T20:00:23;7.10;96.70
45115;DHT22;30877;43.706;10.780;2023-12-20T20:02:53;7.00;96.70
45115;DHT22;30877;43.706;10.780;2023-12-20T20:05:22;7.00;96.70
45115;DHT22;30877;43.706;10.780;2023-12-20T20:07:53;6.90;96.70
45115;DHT22;30877;43.706;10.780;2023-12-20T20:10:23;6.90;96.70
45115;DHT22;30877;43.706;10.780;2023-12-20T20:12:53;7.00;96.70
45115;DHT22;30877;43.706;10.780;2023-12-20T20:15:21;7.00;96.70
45115;DHT22;30877;43.706;10.780;2023-12-20T20:17:50;7.00;96.70
45115;DHT22;30877;43.706;10.780;2023-12-20T20:20:19;6.90;96.70
45115;DHT22;30877;43.706;10.780;2023-12-20T20:22:48;6.90;96.70
45115;DHT22;30877;43.706;10.780;2023-12-20T20:25:17;6.90;96.70
45115;DHT22;30877;43.706;10.780;2023-12-20T20:34:29;7.00;96.70
45115;DHT22;30877;43.706;10.780;2023-12-20T20:37:34;7.00;96.70
45115;DHT22;30877;43.706;10.780;2023-12-20T20:40:05;7.00;96.70
45115;DHT22;30877;43.706;10.780;2023-12-20T20:42:33;7.00;96.70
45115;DHT22;30877;43.706;10.780;2023-12-20T20:48:05;6.90;96.70
45115;DHT22;30877;43.706;10.780;2023-12-20T20:51:22;6.90;96.70
45115;DHT22;30877;43.706;10.780;2023-12-20T20:54:02;6.90;96.70
45115;DHT22;30877;43.706;10.780;2023-12-20T20:56:45;6.90;96.70
45115;DHT22;30877;43.706;10.780;2023-12-20T20:59:36;6.90;96.70
45115;DHT22;30877;43.706;10.780;2023-12-20T21:02:47;6.90;96.70
45115;DHT22;30877;43.706;10.780;2023-12-20T21:06:01;6.80;96.70
45115;DHT22;30877;43.706;10.780;2023-12-20T21:17:58;6.70;96.70
45115;DHT22;30877;43.706;10.780;2023-12-20T21:28:16;6.50;96.70
45115;DHT22;30877;43.706;10.780;2023-12-20T21:31:07;6.50;96.70
45115;DHT22;30877;43.706;10.780;2023-12-20T21:44:22;6.10;96.70
45115;DHT22;30877;43.706;10.780;2023-12-20T21:55:42;6.10;96.70
45115;DHT22;30877;43.706;10.780;2023-12-20T22:03:21;6.10;96.70
45115;DHT22;30877;43.706;10.780;2023-12-20T22:19:14;6.10;96.70
45115;DHT22;30877;43.706;10.780;2023-12-20T22:21:44;6.10;96.70
45115;DHT22;30877;43.706;10.780;2023-12-20T22:24:53;6.10;96.70
45115;DHT22;30877;43.706;10.780;2023-12-20T22:27:23;6.10;96.70
45115;DHT22;30877;43.706;10.780;2023-12-20T22:31:00;6.00;96.70
45115;DHT22;30877;43.706;10.780;2023-12-20T22:38:25;6.00;96.70
45115;DHT22;30877;43.706;10.780;2023-12-20T22:41:00;5.90;96.70
45115;DHT22;30877;43.706;10.780;2023-12-20T22:44:37;5.90;96.70
45115;DHT22;30877;43.706;10.780;2023-12-20T22:47:17;5.80;96.70
45115;DHT22;30877;43.706;10.780;2023-12-20T22:49:47;5.80;96.70
45115;DHT22;30877;43.706;10.780;2023-12-20T22:52:26;5.80;96.70
45115;DHT22;30877;43.706;10.780;2023-12-20T22:59:26;5.80;96.70
45115;DHT22;30877;43.706;10.780;2023-12-20T23:02:34;5.90;96.70
45115;DHT22;30877;43.706;10.780;2023-12-20T23:09:48;5.70;96.70
45115;DHT22;30877;43.706;10.780;2023-12-20T23:12:20;5.70;96.70
45115;DHT22;30877;43.706;10.780;2023-12-20T23:14:54;5.80;96.70
45115;DHT22;30877;43.706;10.780;2023-12-20T23:17:24;5.70;96.70
45115;DHT22;30877;43.706;10.780;2023-12-20T23:19:53;5.60;96.70
45115;DHT22;30877;43.706;10.780;2023-12-20T23:22:23;5.60;96.70
45115;DHT22;30877;43.706;10.780;2023-12-20T23:24:52;5.60;96.70
45115;DHT22;30877;43.706;10.780;2023-12-20T23:32:02;5.50;96.70
45115;DHT22;30877;43.706;10.780;2023-12-20T23:35:12;5.50;96.70
45115;DHT22;30877;43.706;10.780;2023-12-20T23:38:20;5.50;96.70
45115;DHT22;30877;43.706;10.780;2023-12-20T23:40:50;5.60;96.70
45115;DHT22;30877;43.706;10.780;2023-12-20T23:44:03;5.50;96.70
45115;DHT22;30877;43.706;10.780;2023-12-20T23:47:33;5.50;96.70
45115;DHT22;30877;43.706;10.780;2023-12-20T23:50:04;5.40;96.70
45115;DHT22;30877;43.706;10.780;2023-12-20T23:52:33;5.30;96.70
